Yangtze Happiness — VRLA7 — position and weather

sailwx.info

Track history (hours):
 
Tides and Currents Weather Stations Pressure Air Temp Water Temp Dewpoint Dewpoint Depression Visibility Wind Speed Wind Dir Waves Ship Positions

Yangtze Happiness

Last reported at 2018-Jun-09 06:02 UTC. Time now 2018-Jun-24 07:19 UTC.
Position N 36°57' W 076°20'.
Warning: this ship's position is 15 days out of date.

Length 180 m; draft 9.8 m.

Type: Cargo ship. MMSI: 477211700.

Date/timePositionNaut miles runAvg speedWind from/ knotsBaromVisibWave heightAir tempDewpointWater temp
2018-Jun-09 06:02N 36°57' W 076°20'0 9.2
2018-Jun-09 05:59N 36°57' W 076°20'4 9.4
2018-Jun-09 05:30N 36°53' W 076°20'3 6.2
2018-Jun-09 05:00N 36°50' W 076°18'1 2.3
2018-Jun-09 04:29N 36°49' W 076°17'0 0.0
2018-Jun-09 03:59N 36°49' W 076°17'0 0.0
2018-Jun-09 03:26N 36°49' W 076°17'0 0.0
2018-Jun-09 02:56N 36°49' W 076°17'0 0.0
2018-Jun-09 02:29N 36°49' W 076°17'0 0.0
2018-Jun-09 01:59N 36°49' W 076°17'0 0.0
2018-Jun-09 01:29N 36°49' W 076°17'0 0.0
2018-Jun-09 00:59N 36°49' W 076°17'0 0.0
2018-Jun-09 00:29N 36°49' W 076°17'0 0.0
2018-Jun-08 23:59N 36°49' W 076°17'0 0.0
2018-Jun-08 23:29N 36°49' W 076°17'0 0.0
2018-Jun-08 22:56N 36°49' W 076°17'0 0.0
2018-Jun-08 22:29N 36°49' W 076°17'0 0.0
2018-Jun-08 21:59N 36°49' W 076°17'0 0.0
2018-Jun-08 21:29N 36°49' W 076°17'0 0.0
2018-Jun-08 20:59N 36°49' W 076°17'0 0.0
2018-Jun-08 20:29N 36°49' W 076°17'0 0.0
2018-Jun-08 19:59N 36°49' W 076°17'0 0.0
2018-Jun-08 19:29N 36°49' W 076°17'0 0.0
2018-Jun-08 18:59N 36°49' W 076°17'0 0.0
2018-Jun-08 18:29N 36°49' W 076°17'0 0.0
2018-Jun-08 17:59N 36°49' W 076°17'0 0.0
2018-Jun-08 17:29N 36°49' W 076°17'0 0.0
2018-Jun-08 16:59N 36°49' W 076°17'0 0.0
2018-Jun-08 16:29N 36°49' W 076°17'0 0.0
2018-Jun-08 15:59N 36°49' W 076°17'0 0.0
2018-Jun-08 15:29N 36°49' W 076°17'0 0.0
2018-Jun-08 14:56N 36°49' W 076°17'0 0.0
2018-Jun-08 14:29N 36°49' W 076°17'0 0.0
2018-Jun-08 13:56N 36°49' W 076°17'0 0.0
2018-Jun-08 13:29N 36°49' W 076°17'0 0.0
2018-Jun-08 12:56N 36°49' W 076°17'0 0.0
2018-Jun-08 12:29N 36°49' W 076°17'0 0.0
2018-Jun-08 11:59N 36°49' W 076°17'0 0.0
2018-Jun-08 11:29N 36°49' W 076°17'0 0.0
2018-Jun-08 10:59N 36°49' W 076°17'0 0.0
2018-Jun-08 10:29N 36°49' W 076°17'0 0.0
2018-Jun-08 09:59N 36°49' W 076°17'0 0.0
2018-Jun-08 09:29N 36°49' W 076°17'0 0.0
2018-Jun-08 08:59N 36°49' W 076°17'0 0.0
2018-Jun-08 08:29N 36°49' W 076°17'0 0.0
2018-Jun-08 07:58N 36°49' W 076°17'0 0.0
2018-Jun-08 07:29N 36°49' W 076°17'0 0.0
2018-Jun-08 06:59N 36°49' W 076°17'0 0.0
2018-Jun-08 06:29N 36°49' W 076°17'0 0.0
2018-Jun-08 05:59N 36°49' W 076°17'0 0.0
2018-Jun-08 05:29N 36°49' W 076°17'0 0.0
2018-Jun-08 04:59N 36°49' W 076°17'0 0.0
2018-Jun-08 04:29N 36°49' W 076°17'0 0.0
2018-Jun-08 04:00N 36°49' W 076°17'1 1.2
2018-Jun-08 03:30N 36°50' W 076°17'3 5.0
2018-Jun-08 03:00N 36°52' W 076°19'5 9.4
2018-Jun-08 02:30N 36°56' W 076°20'  
2018-Jun-02 19:45N 36°58' W 076°26'311.4
2018-Jun-02 19:29N 36°57' W 076°22'20412.0
2018-Jun-02 02:27N 33°35' W 075°50'715.4
2018-Jun-02 02:00N 33°29' W 075°53'46114.6
2018-May-31 18:23N 26°34' W 079°46'717.3
2018-May-31 18:00N 26°28' W 079°50'917.4
2018-May-31 17:30N 26°20' W 079°54'917.7
2018-May-31 17:00N 26°12' W 079°59'714.5
2018-May-31 16:30N 26°07' W 080°04'0 0.6
2018-May-31 15:59N 26°07' W 080°05'0 0.1
2018-May-31 15:29N 26°07' W 080°05'0 0.1
2018-May-31 14:59N 26°07' W 080°05'0 0.0
2018-May-31 14:29N 26°07' W 080°05'0 0.0
2018-May-31 13:59N 26°07' W 080°05'0 0.1
2018-May-31 13:29N 26°07' W 080°05'0 0.0
2018-May-31 12:59N 26°07' W 080°05'0 0.1
2018-May-31 12:29N 26°07' W 080°05'0 0.0
2018-May-31 11:56N 26°07' W 080°05'0 0.1
2018-May-31 11:29N 26°07' W 080°05'0 0.0
2018-May-31 10:59N 26°07' W 080°05'0 0.0
2018-May-31 10:29N 26°07' W 080°05'0 0.0
2018-May-31 09:59N 26°07' W 080°05'0 0.0
2018-May-31 09:29N 26°07' W 080°05'0 0.0
2018-May-31 08:59N 26°07' W 080°05'0 0.0
2018-May-31 08:29N 26°07' W 080°05'0 0.0
2018-May-31 07:59N 26°07' W 080°05'0 0.0
2018-May-31 07:29N 26°07' W 080°05'0 0.0
2018-May-31 06:59N 26°07' W 080°05'0 0.0
2018-May-31 06:29N 26°07' W 080°05'0 0.0
2018-May-31 05:59N 26°07' W 080°05'0 0.0
2018-May-31 05:26N 26°07' W 080°05'0 0.0
2018-May-31 04:59N 26°07' W 080°05'0 0.0
2018-May-31 04:29N 26°07' W 080°05'0 0.0
2018-May-31 03:59N 26°07' W 080°05'0 0.0
2018-May-31 03:29N 26°07' W 080°05'0 0.0
2018-May-31 02:59N 26°07' W 080°05'0 0.0
2018-May-31 02:26N 26°07' W 080°05'0 0.0
2018-May-31 01:59N 26°07' W 080°05'0 0.0
2018-May-31 01:29N 26°07' W 080°05'0 0.0
2018-May-31 00:59N 26°07' W 080°05'0 0.0
2018-May-31 00:29N 26°07' W 080°05'0 0.1
2018-May-30 23:59N 26°07' W 080°05'0 0.0
2018-May-30 23:29N 26°07' W 080°05'0 0.1
2018-May-30 22:56N 26°07' W 080°05'0 0.0
2018-May-30 22:29N 26°07' W 080°05'0 0.0
2018-May-30 21:59N 26°07' W 080°05'0 0.0
2018-May-30 21:29N 26°07' W 080°05'0 0.0
2018-May-30 20:59N 26°07' W 080°05'0 0.0
2018-May-30 20:29N 26°07' W 080°05'0 0.0
2018-May-30 19:59N 26°07' W 080°05'0 0.0
2018-May-30 19:26N 26°07' W 080°05'0 0.0
2018-May-30 18:59N 26°07' W 080°05'0 0.0
2018-May-30 18:29N 26°07' W 080°05'0 0.0
2018-May-30 17:53N 26°07' W 080°05'0 0.0
2018-May-30 17:29N 26°07' W 080°05'0 0.0
2018-May-30 16:59N 26°07' W 080°05'0 0.0
2018-May-30 16:29N 26°07' W 080°05'0 0.0
2018-May-30 15:59N 26°07' W 080°05'0 0.0
2018-May-30 15:29N 26°07' W 080°05'0 0.0
2018-May-30 14:59N 26°07' W 080°05'0 0.0
2018-May-30 14:29N 26°07' W 080°05'0 0.0
2018-May-30 13:59N 26°07' W 080°05'0 0.0
2018-May-30 13:29N 26°07' W 080°05'0 0.0
2018-May-30 12:59N 26°07' W 080°05'0 0.0
2018-May-30 12:29N 26°07' W 080°05'0 0.0
2018-May-30 11:59N 26°07' W 080°05'0 0.0
2018-May-30 11:29N 26°07' W 080°05'0 0.0
2018-May-30 10:59N 26°07' W 080°05'0 0.0
2018-May-30 10:29N 26°07' W 080°05'0 0.0
2018-May-30 09:59N 26°07' W 080°05'0 0.0
2018-May-30 09:29N 26°07' W 080°05'0 0.0
2018-May-30 08:59N 26°07' W 080°05'0 0.0
2018-May-30 08:29N 26°07' W 080°05'0 0.0
2018-May-30 07:59N 26°07' W 080°05'0 0.0
2018-May-30 07:29N 26°07' W 080°05'0 0.0
2018-May-30 06:59N 26°07' W 080°05'0 0.0
2018-May-30 06:29N 26°07' W 080°05'  
Track history (hours):
 
Tides and Currents Weather Stations Pressure Air Temp Water Temp Dewpoint Dewpoint Depression Visibility Wind Speed Wind Dir Waves Ship Positions

Yangtze Happiness

Last reported at 2018-Jun-09 06:02 UTC. Time now 2018-Jun-24 07:19 UTC.
Position N 36°57' W 076°20'.
Warning: this ship's position is 15 days out of date.

Length 180 m; draft 9.8 m.

Type: Cargo ship. MMSI: 477211700.

Date/timePositionNaut miles runAvg speedWind from/ knotsBaromVisibWave heightAir tempDewpointWater temp
2018-Jun-09 06:02N 36°57' W 076°20'0 9.2
2018-Jun-09 05:59N 36°57' W 076°20'4 9.4
2018-Jun-09 05:30N 36°53' W 076°20'3 6.2
2018-Jun-09 05:00N 36°50' W 076°18'1 2.3
2018-Jun-09 04:29N 36°49' W 076°17'0 0.0
2018-Jun-09 03:59N 36°49' W 076°17'0 0.0
2018-Jun-09 03:26N 36°49' W 076°17'0 0.0
2018-Jun-09 02:56N 36°49' W 076°17'0 0.0
2018-Jun-09 02:29N 36°49' W 076°17'0 0.0
2018-Jun-09 01:59N 36°49' W 076°17'0 0.0
2018-Jun-09 01:29N 36°49' W 076°17'0 0.0
2018-Jun-09 00:59N 36°49' W 076°17'0 0.0
2018-Jun-09 00:29N 36°49' W 076°17'0 0.0
2018-Jun-08 23:59N 36°49' W 076°17'0 0.0
2018-Jun-08 23:29N 36°49' W 076°17'0 0.0
2018-Jun-08 22:56N 36°49' W 076°17'0 0.0
2018-Jun-08 22:29N 36°49' W 076°17'0 0.0
2018-Jun-08 21:59N 36°49' W 076°17'0 0.0
2018-Jun-08 21:29N 36°49' W 076°17'0 0.0
2018-Jun-08 20:59N 36°49' W 076°17'0 0.0
2018-Jun-08 20:29N 36°49' W 076°17'0 0.0
2018-Jun-08 19:59N 36°49' W 076°17'0 0.0
2018-Jun-08 19:29N 36°49' W 076°17'0 0.0
2018-Jun-08 18:59N 36°49' W 076°17'0 0.0
2018-Jun-08 18:29N 36°49' W 076°17'0 0.0
2018-Jun-08 17:59N 36°49' W 076°17'0 0.0
2018-Jun-08 17:29N 36°49' W 076°17'0 0.0
2018-Jun-08 16:59N 36°49' W 076°17'0 0.0
2018-Jun-08 16:29N 36°49' W 076°17'0 0.0
2018-Jun-08 15:59N 36°49' W 076°17'0 0.0
2018-Jun-08 15:29N 36°49' W 076°17'0 0.0
2018-Jun-08 14:56N 36°49' W 076°17'0 0.0
2018-Jun-08 14:29N 36°49' W 076°17'0 0.0
2018-Jun-08 13:56N 36°49' W 076°17'0 0.0
2018-Jun-08 13:29N 36°49' W 076°17'0 0.0
2018-Jun-08 12:56N 36°49' W 076°17'0 0.0
2018-Jun-08 12:29N 36°49' W 076°17'0 0.0
2018-Jun-08 11:59N 36°49' W 076°17'0 0.0
2018-Jun-08 11:29N 36°49' W 076°17'0 0.0
2018-Jun-08 10:59N 36°49' W 076°17'0 0.0
2018-Jun-08 10:29N 36°49' W 076°17'0 0.0
2018-Jun-08 09:59N 36°49' W 076°17'0 0.0
2018-Jun-08 09:29N 36°49' W 076°17'0 0.0
2018-Jun-08 08:59N 36°49' W 076°17'0 0.0
2018-Jun-08 08:29N 36°49' W 076°17'0 0.0
2018-Jun-08 07:58N 36°49' W 076°17'0 0.0
2018-Jun-08 07:29N 36°49' W 076°17'0 0.0
2018-Jun-08 06:59N 36°49' W 076°17'0 0.0
2018-Jun-08 06:29N 36°49' W 076°17'0 0.0
2018-Jun-08 05:59N 36°49' W 076°17'0 0.0
2018-Jun-08 05:29N 36°49' W 076°17'0 0.0
2018-Jun-08 04:59N 36°49' W 076°17'0 0.0
2018-Jun-08 04:29N 36°49' W 076°17'0 0.0
2018-Jun-08 04:00N 36°49' W 076°17'1 1.2
2018-Jun-08 03:30N 36°50' W 076°17'3 5.0
2018-Jun-08 03:00N 36°52' W 076°19'5 9.4
2018-Jun-08 02:30N 36°56' W 076°20'  
2018-Jun-02 19:45N 36°58' W 076°26'311.4
2018-Jun-02 19:29N 36°57' W 076°22'20412.0
2018-Jun-02 02:27N 33°35' W 075°50'715.4
2018-Jun-02 02:00N 33°29' W 075°53'46114.6
2018-May-31 18:23N 26°34' W 079°46'717.3
2018-May-31 18:00N 26°28' W 079°50'917.4
2018-May-31 17:30N 26°20' W 079°54'917.7
2018-May-31 17:00N 26°12' W 079°59'714.5
2018-May-31 16:30N 26°07' W 080°04'0 0.6
2018-May-31 15:59N 26°07' W 080°05'0 0.1
2018-May-31 15:29N 26°07' W 080°05'0 0.1
2018-May-31 14:59N 26°07' W 080°05'0 0.0
2018-May-31 14:29N 26°07' W 080°05'0 0.0
2018-May-31 13:59N 26°07' W 080°05'0 0.1
2018-May-31 13:29N 26°07' W 080°05'0 0.0
2018-May-31 12:59N 26°07' W 080°05'0 0.1
2018-May-31 12:29N 26°07' W 080°05'0 0.0
2018-May-31 11:56N 26°07' W 080°05'0 0.1
2018-May-31 11:29N 26°07' W 080°05'0 0.0
2018-May-31 10:59N 26°07' W 080°05'0 0.0
2018-May-31 10:29N 26°07' W 080°05'0 0.0
2018-May-31 09:59N 26°07' W 080°05'0 0.0
2018-May-31 09:29N 26°07' W 080°05'0 0.0
2018-May-31 08:59N 26°07' W 080°05'0 0.0
2018-May-31 08:29N 26°07' W 080°05'0 0.0
2018-May-31 07:59N 26°07' W 080°05'0 0.0
2018-May-31 07:29N 26°07' W 080°05'0 0.0
2018-May-31 06:59N 26°07' W 080°05'0 0.0
2018-May-31 06:29N 26°07' W 080°05'0 0.0
2018-May-31 05:59N 26°07' W 080°05'0 0.0
2018-May-31 05:26N 26°07' W 080°05'0 0.0
2018-May-31 04:59N 26°07' W 080°05'0 0.0
2018-May-31 04:29N 26°07' W 080°05'0 0.0
2018-May-31 03:59N 26°07' W 080°05'0 0.0
2018-May-31 03:29N 26°07' W 080°05'0 0.0
2018-May-31 02:59N 26°07' W 080°05'0 0.0
2018-May-31 02:26N 26°07' W 080°05'0 0.0
2018-May-31 01:59N 26°07' W 080°05'0 0.0
2018-May-31 01:29N 26°07' W 080°05'0 0.0
2018-May-31 00:59N 26°07' W 080°05'0 0.0
2018-May-31 00:29N 26°07' W 080°05'0 0.1
2018-May-30 23:59N 26°07' W 080°05'0 0.0
2018-May-30 23:29N 26°07' W 080°05'0 0.1
2018-May-30 22:56N 26°07' W 080°05'0 0.0
2018-May-30 22:29N 26°07' W 080°05'0 0.0
2018-May-30 21:59N 26°07' W 080°05'0 0.0
2018-May-30 21:29N 26°07' W 080°05'0 0.0
2018-May-30 20:59N 26°07' W 080°05'0 0.0
2018-May-30 20:29N 26°07' W 080°05'0 0.0
2018-May-30 19:59N 26°07' W 080°05'0 0.0
2018-May-30 19:26N 26°07' W 080°05'0 0.0
2018-May-30 18:59N 26°07' W 080°05'0 0.0
2018-May-30 18:29N 26°07' W 080°05'0 0.0
2018-May-30 17:53N 26°07' W 080°05'0 0.0
2018-May-30 17:29N 26°07' W 080°05'0 0.0
2018-May-30 16:59N 26°07' W 080°05'0 0.0
2018-May-30 16:29N 26°07' W 080°05'0 0.0
2018-May-30 15:59N 26°07' W 080°05'0 0.0
2018-May-30 15:29N 26°07' W 080°05'0 0.0
2018-May-30 14:59N 26°07' W 080°05'0 0.0
2018-May-30 14:29N 26°07' W 080°05'0 0.0
2018-May-30 13:59N 26°07' W 080°05'0 0.0
2018-May-30 13:29N 26°07' W 080°05'0 0.0
2018-May-30 12:59N 26°07' W 080°05'0 0.0
2018-May-30 12:29N 26°07' W 080°05'0 0.0
2018-May-30 11:59N 26°07' W 080°05'0 0.0
2018-May-30 11:29N 26°07' W 080°05'0 0.0
2018-May-30 10:59N 26°07' W 080°05'0 0.0
2018-May-30 10:29N 26°07' W 080°05'0 0.0
2018-May-30 09:59N 26°07' W 080°05'0 0.0
2018-May-30 09:29N 26°07' W 080°05'0 0.0
2018-May-30 08:59N 26°07' W 080°05'0 0.0
2018-May-30 08:29N 26°07' W 080°05'0 0.0
2018-May-30 07:59N 26°07' W 080°05'0 0.0
2018-May-30 07:29N 26°07' W 080°05'0 0.0
2018-May-30 06:59N 26°07' W 080°05'0 0.0
2018-May-30 06:29N 26°07' W 080°05'  

Dump ship's entire track history